sensor_id;sensor_type;location;lat;lon;timestamp;temperature;humidity
44136;DHT22;29798;51.064;13.734;2022-09-09T00:00:19;15.90;99.90
44136;DHT22;29798;51.064;13.734;2022-09-09T00:03:01;15.90;99.90
44136;DHT22;29798;51.064;13.734;2022-09-09T00:08:04;15.60;99.90
44136;DHT22;29798;51.064;13.734;2022-09-09T00:10:31;15.50;99.90
44136;DHT22;29798;51.064;13.734;2022-09-09T00:13:18;15.40;99.90
44136;DHT22;29798;51.064;13.734;2022-09-09T00:21:06;15.30;99.90
44136;DHT22;29798;51.064;13.734;2022-09-09T00:23:38;15.30;99.90
44136;DHT22;29798;51.064;13.734;2022-09-09T00:26:08;15.30;99.90
44136;DHT22;29798;51.064;13.734;2022-09-09T00:29:23;15.20;99.90
44136;DHT22;29798;51.064;13.734;2022-09-09T00:31:30;15.10;99.90
44136;DHT22;29798;51.064;13.734;2022-09-09T00:34:10;15.10;99.90
44136;DHT22;29798;51.064;13.734;2022-09-09T00:36:38;15.10;99.90
44136;DHT22;29798;51.064;13.734;2022-09-09T00:39:05;15.10;99.90
44136;DHT22;29798;51.064;13.734;2022-09-09T00:52:30;15.10;99.90
44136;DHT22;29798;51.064;13.734;2022-09-09T00:57:35;15.00;99.90
44136;DHT22;29798;51.064;13.734;2022-09-09T01:02:50;15.00;99.90
44136;DHT22;29798;51.064;13.734;2022-09-09T01:08:00;15.00;99.90
44136;DHT22;29798;51.064;13.734;2022-09-09T01:10:31;15.00;99.90
44136;DHT22;29798;51.064;13.734;2022-09-09T01:13:04;15.00;99.90
44136;DHT22;29798;51.064;13.734;2022-09-09T01:15:38;15.10;99.90
44136;DHT22;29798;51.064;13.734;2022-09-09T01:18:06;15.20;99.90
44136;DHT22;29798;51.064;13.734;2022-09-09T01:24:03;15.30;99.90
44136;DHT22;29798;51.064;13.734;2022-09-09T01:29:11;15.40;99.90
44136;DHT22;29798;51.064;13.734;2022-09-09T01:31:53;15.40;99.90
44136;DHT22;29798;51.064;13.734;2022-09-09T01:34:26;15.40;99.90
44136;DHT22;29798;51.064;13.734;2022-09-09T01:36:59;15.40;99.90
44136;DHT22;29798;51.064;13.734;2022-09-09T01:39:27;15.30;99.90
44136;DHT22;29798;51.064;13.734;2022-09-09T01:41:59;15.30;99.90
44136;DHT22;29798;51.064;13.734;2022-09-09T01:44:26;15.20;99.90
44136;DHT22;29798;51.064;13.734;2022-09-09T01:46:52;15.10;99.90
44136;DHT22;29798;51.064;13.734;2022-09-09T01:49:20;14.90;99.90
44136;DHT22;29798;51.064;13.734;2022-09-09T01:51:47;14.80;99.90
44136;DHT22;29798;51.064;13.734;2022-09-09T01:54:16;14.70;99.90
44136;DHT22;29798;51.064;13.734;2022-09-09T01:59:27;14.80;99.90
44136;DHT22;29798;51.064;13.734;2022-09-09T02:02:17;14.80;99.90
44136;DHT22;29798;51.064;13.734;2022-09-09T02:05:08;14.80;99.90
44136;DHT22;29798;51.064;13.734;2022-09-09T02:07:52;14.80;99.90
44136;DHT22;29798;51.064;13.734;2022-09-09T02:10:41;14.80;99.90
44136;DHT22;29798;51.064;13.734;2022-09-09T02:13:15;14.70;99.90
44136;DHT22;29798;51.064;13.734;2022-09-09T02:16:04;16.60;99.90
44136;DHT22;29798;51.064;13.734;2022-09-09T02:18:35;14.60;99.90
44136;DHT22;29798;51.064;13.734;2022-09-09T02:21:06;14.60;99.90
44136;DHT22;29798;51.064;13.734;2022-09-09T02:23:32;14.60;99.90
44136;DHT22;29798;51.064;13.734;2022-09-09T02:26:01;14.60;99.90
44136;DHT22;29798;51.064;13.734;2022-09-09T02:28:28;14.60;99.90
44136;DHT22;29798;51.064;13.734;2022-09-09T02:30:55;14.60;99.90
44136;DHT22;29798;51.064;13.734;2022-09-09T02:33:26;14.60;99.90
44136;DHT22;29798;51.064;13.734;2022-09-09T02:35:54;14.50;99.90
44136;DHT22;29798;51.064;13.734;2022-09-09T02:38:26;14.40;99.90
44136;DHT22;29798;51.064;13.734;2022-09-09T02:40:59;14.30;99.90
44136;DHT22;29798;51.064;13.734;2022-09-09T02:43:31;14.20;99.90
44136;DHT22;29798;51.064;13.734;2022-09-09T02:49:03;14.20;99.90
44136;DHT22;29798;51.064;13.734;2022-09-09T02:51:58;14.20;99.90
44136;DHT22;29798;51.064;13.734;2022-09-09T02:54:29;14.10;99.90
44136;DHT22;29798;51.064;13.734;2022-09-09T02:57:20;14.00;99.90
44136;DHT22;29798;51.064;13.734;2022-09-09T02:59:49;14.00;99.90
44136;DHT22;29798;51.064;13.734;2022-09-09T03:02:15;14.00;99.90
44136;DHT22;29798;51.064;13.734;2022-09-09T03:04:45;14.00;99.90
44136;DHT22;29798;51.064;13.734;2022-09-09T03:07:16;14.10;99.90
44136;DHT22;29798;51.064;13.734;2022-09-09T03:09:44;14.10;99.90
44136;DHT22;29798;51.064;13.734;2022-09-09T03:12:10;14.10;99.90
44136;DHT22;29798;51.064;13.734;2022-09-09T03:14:38;14.10;99.90
44136;DHT22;29798;51.064;13.734;2022-09-09T03:17:04;14.20;99.90
44136;DHT22;29798;51.064;13.734;2022-09-09T03:19:36;14.20;99.90
44136;DHT22;29798;51.064;13.734;2022-09-09T03:22:03;14.30;99.90
44136;DHT22;29798;51.064;13.734;2022-09-09T03:24:32;14.30;99.90
44136;DHT22;29798;51.064;13.734;2022-09-09T03:26:57;14.20;99.90
44136;DHT22;29798;51.064;13.734;2022-09-09T03:29:23;14.20;99.90
44136;DHT22;29798;51.064;13.734;2022-09-09T03:31:52;14.30;99.90
44136;DHT22;29798;51.064;13.734;2022-09-09T03:34:18;14.20;99.90
44136;DHT22;29798;51.064;13.734;2022-09-09T03:36:44;14.20;99.90
44136;DHT22;29798;51.064;13.734;2022-09-09T03:39:10;14.20;99.90
44136;DHT22;29798;51.064;13.734;2022-09-09T03:41:37;14.30;99.90
44136;DHT22;29798;51.064;13.734;2022-09-09T03:44:03;10.80;99.90
44136;DHT22;29798;51.064;13.734;2022-09-09T03:46:33;14.30;99.90
44136;DHT22;29798;51.064;13.734;2022-09-09T03:48:59;14.30;99.90
44136;DHT22;29798;51.064;13.734;2022-09-09T03:51:26;14.30;99.90
44136;DHT22;29798;51.064;13.734;2022-09-09T03:53:53;14.30;99.90
44136;DHT22;29798;51.064;13.734;2022-09-09T03:56:20;14.30;99.90
44136;DHT22;29798;51.064;13.734;2022-09-09T03:58:47;14.30;99.90
44136;DHT22;29798;51.064;13.734;2022-09-09T04:01:13;14.40;99.90
44136;DHT22;29798;51.064;13.734;2022-09-09T04:03:40;14.40;99.90
44136;DHT22;29798;51.064;13.734;2022-09-09T04:06:08;14.30;99.90
44136;DHT22;29798;51.064;13.734;2022-09-09T04:08:36;14.30;99.90
44136;DHT22;29798;51.064;13.734;2022-09-09T04:11:03;14.20;99.90
44136;DHT22;29798;51.064;13.734;2022-09-09T04:13:32;14.20;99.90
44136;DHT22;29798;51.064;13.734;2022-09-09T04:16:01;14.20;99.90
44136;DHT22;29798;51.064;13.734;2022-09-09T04:18:29;14.30;99.90
44136;DHT22;29798;51.064;13.734;2022-09-09T04:20:55;14.40;99.90
44136;DHT22;29798;51.064;13.734;2022-09-09T04:23:25;14.40;99.90
44136;DHT22;29798;51.064;13.734;2022-09-09T04:25:53;14.50;99.90
44136;DHT22;29798;51.064;13.734;2022-09-09T04:28:20;14.50;99.90
44136;DHT22;29798;51.064;13.734;2022-09-09T04:30:47;14.50;99.90
44136;DHT22;29798;51.064;13.734;2022-09-09T04:33:14;14.50;99.90
44136;DHT22;29798;51.064;13.734;2022-09-09T04:35:47;14.60;99.90
44136;DHT22;29798;51.064;13.734;2022-09-09T04:38:14;14.50;99.90
44136;DHT22;29798;51.064;13.734;2022-09-09T04:40:42;14.50;99.90
44136;DHT22;29798;51.064;13.734;2022-09-09T04:43:08;14.40;99.90
44136;DHT22;29798;51.064;13.734;2022-09-09T04:45:35;14.50;99.90
44136;DHT22;29798;51.064;13.734;2022-09-09T04:48:01;14.50;99.90
44136;DHT22;29798;51.064;13.734;2022-09-09T04:50:28;14.50;99.90
44136;DHT22;29798;51.064;13.734;2022-09-09T04:52:59;14.50;99.90
44136;DHT22;29798;51.064;13.734;2022-09-09T04:55:27;14.50;99.90
44136;DHT22;29798;51.064;13.734;2022-09-09T04:57:53;14.60;99.90
44136;DHT22;29798;51.064;13.734;2022-09-09T05:00:19;14.60;99.90
44136;DHT22;29798;51.064;13.734;2022-09-09T05:02:46;14.60;99.90
44136;DHT22;29798;51.064;13.734;2022-09-09T05:05:13;14.60;99.90
44136;DHT22;29798;51.064;13.734;2022-09-09T05:07:39;14.60;99.90
44136;DHT22;29798;51.064;13.734;2022-09-09T05:10:06;14.60;99.90
44136;DHT22;29798;51.064;13.734;2022-09-09T05:12:33;14.70;99.90
44136;DHT22;29798;51.064;13.734;2022-09-09T05:14:59;14.80;99.90
44136;DHT22;29798;51.064;13.734;2022-09-09T05:17:25;14.80;99.90
44136;DHT22;29798;51.064;13.734;2022-09-09T05:19:52;14.90;99.90
44136;DHT22;29798;51.064;13.734;2022-09-09T05:22:21;15.00;99.90
44136;DHT22;29798;51.064;13.734;2022-09-09T05:24:49;15.10;99.90
44136;DHT22;29798;51.064;13.734;2022-09-09T05:27:18;15.20;99.90
44136;DHT22;29798;51.064;13.734;2022-09-09T05:29:46;15.30;99.90
44136;DHT22;29798;51.064;13.734;2022-09-09T05:32:12;15.20;99.90
44136;DHT22;29798;51.064;13.734;2022-09-09T05:34:40;15.30;99.90
44136;DHT22;29798;51.064;13.734;2022-09-09T05:37:06;15.40;99.90
44136;DHT22;29798;51.064;13.734;2022-09-09T05:39:33;15.40;99.90
44136;DHT22;29798;51.064;13.734;2022-09-09T05:42:02;15.60;99.90
44136;DHT22;29798;51.064;13.734;2022-09-09T05:44:29;15.70;99.90
44136;DHT22;29798;51.064;13.734;2022-09-09T05:46:55;15.90;99.90
44136;DHT22;29798;51.064;13.734;2022-09-09T05:49:21;16.00;99.90
44136;DHT22;29798;51.064;13.734;2022-09-09T05:51:47;16.00;99.90
44136;DHT22;29798;51.064;13.734;2022-09-09T05:54:16;16.10;99.90
44136;DHT22;29798;51.064;13.734;2022-09-09T05:56:46;16.10;99.90
44136;DHT22;29798;51.064;13.734;2022-09-09T05:59:12;16.10;99.90
44136;DHT22;29798;51.064;13.734;2022-09-09T06:01:39;16.10;99.90
44136;DHT22;29798;51.064;13.734;2022-09-09T06:04:13;16.10;99.90
44136;DHT22;29798;51.064;13.734;2022-09-09T06:06:40;16.20;99.90
44136;DHT22;29798;51.064;13.734;2022-09-09T06:09:11;16.20;99.90
44136;DHT22;29798;51.064;13.734;2022-09-09T06:11:40;16.30;99.90
44136;DHT22;29798;51.064;13.734;2022-09-09T06:14:07;16.50;99.90
44136;DHT22;29798;51.064;13.734;2022-09-09T06:16:33;16.60;99.90
44136;DHT22;29798;51.064;13.734;2022-09-09T06:19:00;16.60;99.90
44136;DHT22;29798;51.064;13.734;2022-09-09T06:21:31;16.60;99.90
44136;DHT22;29798;51.064;13.734;2022-09-09T06:24:06;16.70;99.90
44136;DHT22;29798;51.064;13.734;2022-09-09T06:26:36;16.70;99.90
44136;DHT22;29798;51.064;13.734;2022-09-09T06:29:04;16.70;99.90
44136;DHT22;29798;51.064;13.734;2022-09-09T06:31:31;16.80;99.90
44136;DHT22;29798;51.064;13.734;2022-09-09T06:34:05;16.90;99.90
44136;DHT22;29798;51.064;13.734;2022-09-09T06:36:34;17.00;99.90
44136;DHT22;29798;51.064;13.734;2022-09-09T06:39:02;16.90;99.90
44136;DHT22;29798;51.064;13.734;2022-09-09T06:41:30;17.00;99.90
44136;DHT22;29798;51.064;13.734;2022-09-09T06:43:57;17.30;99.90
44136;DHT22;29798;51.064;13.734;2022-09-09T06:46:31;17.40;99.90
44136;DHT22;29798;51.064;13.734;2022-09-09T06:48:59;17.50;99.90
44136;DHT22;29798;51.064;13.734;2022-09-09T06:51:27;17.60;99.90
44136;DHT22;29798;51.064;13.734;2022-09-09T06:53:57;17.70;99.90
44136;DHT22;29798;51.064;13.734;2022-09-09T06:56:34;17.70;99.90
44136;DHT22;29798;51.064;13.734;2022-09-09T06:59:06;17.80;99.90
44136;DHT22;29798;51.064;13.734;2022-09-09T07:01:38;17.90;99.90
44136;DHT22;29798;51.064;13.734;2022-09-09T07:04:11;18.10;99.90
44136;DHT22;29798;51.064;13.734;2022-09-09T07:06:41;18.40;99.90
44136;DHT22;29798;51.064;13.734;2022-09-09T07:09:11;18.70;99.90
44136;DHT22;29798;51.064;13.734;2022-09-09T07:11:44;18.70;99.90
44136;DHT22;29798;51.064;13.734;2022-09-09T07:14:19;18.70;99.90
44136;DHT22;29798;51.064;13.734;2022-09-09T07:16:49;18.80;99.90
44136;DHT22;29798;51.064;13.734;2022-09-09T07:19:17;19.00;99.90
44136;DHT22;29798;51.064;13.734;2022-09-09T07:21:45;19.20;99.90
44136;DHT22;29798;51.064;13.734;2022-09-09T07:24:14;19.30;99.90
44136;DHT22;29798;51.064;13.734;2022-09-09T07:26:42;19.30;99.90
44136;DHT22;29798;51.064;13.734;2022-09-09T07:29:08;19.40;99.90
44136;DHT22;29798;51.064;13.734;2022-09-09T07:31:35;19.60;99.90
44136;DHT22;29798;51.064;13.734;2022-09-09T07:34:04;19.90;99.90
44136;DHT22;29798;51.064;13.734;2022-09-09T07:36:32;19.90;99.90
44136;DHT22;29798;51.064;13.734;2022-09-09T07:39:02;19.90;99.90
44136;DHT22;29798;51.064;13.734;2022-09-09T07:41:35;17.20;99.90
44136;DHT22;29798;51.064;13.734;2022-09-09T07:44:04;20.00;99.90
44136;DHT22;29798;51.064;13.734;2022-09-09T07:46:32;20.10;99.90
44136;DHT22;29798;51.064;13.734;2022-09-09T07:49:00;20.10;99.90
44136;DHT22;29798;51.064;13.734;2022-09-09T07:51:32;20.30;99.90
44136;DHT22;29798;51.064;13.734;2022-09-09T07:54:00;20.40;99.90
44136;DHT22;29798;51.064;13.734;2022-09-09T07:56:31;20.70;99.90
44136;DHT22;29798;51.064;13.734;2022-09-09T07:58:58;21.10;99.90
44136;DHT22;29798;51.064;13.734;2022-09-09T08:03:55;21.70;99.90
44136;DHT22;29798;51.064;13.734;2022-09-09T08:06:34;22.10;99.90
44136;DHT22;29798;51.064;13.734;2022-09-09T08:09:02;22.40;99.90
44136;DHT22;29798;51.064;13.734;2022-09-09T08:11:30;22.30;99.90
44136;DHT22;29798;51.064;13.734;2022-09-09T08:13:58;22.50;99.90
44136;DHT22;29798;51.064;13.734;2022-09-09T08:16:28;22.60;99.90
44136;DHT22;29798;51.064;13.734;2022-09-09T08:18:57;22.60;99.90
44136;DHT22;29798;51.064;13.734;2022-09-09T08:21:24;22.40;99.90
44136;DHT22;29798;51.064;13.734;2022-09-09T08:23:54;22.20;99.90
44136;DHT22;29798;51.064;13.734;2022-09-09T08:26:21;22.20;99.90
44136;DHT22;29798;51.064;13.734;2022-09-09T08:28:50;22.40;99.90
44136;DHT22;29798;51.064;13.734;2022-09-09T08:31:19;22.50;99.90
44136;DHT22;29798;51.064;13.734;2022-09-09T08:33:47;22.60;99.90
44136;DHT22;29798;51.064;13.734;2022-09-09T08:36:15;22.60;99.90
44136;DHT22;29798;51.064;13.734;2022-09-09T08:38:50;22.70;99.90
44136;DHT22;29798;51.064;13.734;2022-09-09T08:52:16;23.50;99.90
44136;DHT22;29798;51.064;13.734;2022-09-09T08:54:47;23.80;99.90
44136;DHT22;29798;51.064;13.734;2022-09-09T08:57:14;24.20;99.90
44136;DHT22;29798;51.064;13.734;2022-09-09T08:59:46;24.30;99.90
44136;DHT22;29798;51.064;13.734;2022-09-09T09:02:16;24.50;99.90
44136;DHT22;29798;51.064;13.734;2022-09-09T09:05:05;24.50;99.90
44136;DHT22;29798;51.064;13.734;2022-09-09T09:07:55;24.30;99.90
44136;DHT22;29798;51.064;13.734;2022-09-09T09:12:55;24.20;99.90
44136;DHT22;29798;51.064;13.734;2022-09-09T09:17:51;23.80;99.90
44136;DHT22;29798;51.064;13.734;2022-09-09T09:20:18;23.70;99.90
44136;DHT22;29798;51.064;13.734;2022-09-09T09:22:50;23.40;99.90
44136;DHT22;29798;51.064;13.734;2022-09-09T09:25:37;23.10;99.90
44136;DHT22;29798;51.064;13.734;2022-09-09T09:28:13;22.80;99.90
44136;DHT22;29798;51.064;13.734;2022-09-09T09:30:49;22.40;99.90
44136;DHT22;29798;51.064;13.734;2022-09-09T09:35:48;20.70;99.90
44136;DHT22;29798;51.064;13.734;2022-09-09T09:40:57;20.20;99.90
44136;DHT22;29798;51.064;13.734;2022-09-09T09:43:26;20.40;99.90
44136;DHT22;29798;51.064;13.734;2022-09-09T09:45:55;20.60;99.90
44136;DHT22;29798;51.064;13.734;2022-09-09T09:48:24;20.90;99.90
44136;DHT22;29798;51.064;13.734;2022-09-09T09:50:58;21.40;99.90
44136;DHT22;29798;51.064;13.734;2022-09-09T09:53:30;22.00;99.90
44136;DHT22;29798;51.064;13.734;2022-09-09T09:56:02;22.50;99.90
44136;DHT22;29798;51.064;13.734;2022-09-09T09:58:31;23.10;99.90
44136;DHT22;29798;51.064;13.734;2022-09-09T10:01:25;23.90;99.90
44136;DHT22;29798;51.064;13.734;2022-09-09T10:03:53;25.10;99.90
44136;DHT22;29798;51.064;13.734;2022-09-09T10:06:39;25.80;99.90
44136;DHT22;29798;51.064;13.734;2022-09-09T10:09:26;26.30;99.90
44136;DHT22;29798;51.064;13.734;2022-09-09T10:14:38;27.60;99.90
44136;DHT22;29798;51.064;13.734;2022-09-09T10:20:04;28.10;99.90
44136;DHT22;29798;51.064;13.734;2022-09-09T10:22:44;28.60;99.90
44136;DHT22;29798;51.064;13.734;2022-09-09T10:31:04;29.20;99.90
44136;DHT22;29798;51.064;13.734;2022-09-09T10:36:24;29.50;99.90
44136;DHT22;29798;51.064;13.734;2022-09-09T10:38:57;29.70;99.90
44136;DHT22;29798;51.064;13.734;2022-09-09T10:44:48;29.30;99.90
44136;DHT22;29798;51.064;13.734;2022-09-09T10:47:40;30.10;99.90
44136;DHT22;29798;51.064;13.734;2022-09-09T10:53:18;31.50;99.90
44136;DHT22;29798;51.064;13.734;2022-09-09T10:55:53;32.00;99.90
44136;DHT22;29798;51.064;13.734;2022-09-09T10:58:25;32.30;99.90
44136;DHT22;29798;51.064;13.734;2022-09-09T11:00:56;33.00;99.90
44136;DHT22;29798;51.064;13.734;2022-09-09T11:03:28;33.40;98.80
44136;DHT22;29798;51.064;13.734;2022-09-09T11:08:31;33.60;96.10
44136;DHT22;29798;51.064;13.734;2022-09-09T11:11:13;33.00;96.50
44136;DHT22;29798;51.064;13.734;2022-09-09T11:13:58;32.10;96.60
44136;DHT22;29798;51.064;13.734;2022-09-09T11:16:39;30.90;98.10
44136;DHT22;29798;51.064;13.734;2022-09-09T11:19:30;30.00;99.40
44136;DHT22;29798;51.064;13.734;2022-09-09T11:22:00;29.10;99.90
44136;DHT22;29798;51.064;13.734;2022-09-09T11:27:05;27.80;99.90
44136;DHT22;29798;51.064;13.734;2022-09-09T11:32:34;26.90;99.90
44136;DHT22;29798;51.064;13.734;2022-09-09T11:40:39;27.10;99.90
44136;DHT22;29798;51.064;13.734;2022-09-09T11:43:09;27.00;99.90
44136;DHT22;29798;51.064;13.734;2022-09-09T11:45:39;26.80;99.90
44136;DHT22;29798;51.064;13.734;2022-09-09T11:48:20;26.70;99.90
44136;DHT22;29798;51.064;13.734;2022-09-09T11:50:56;26.50;99.90
44136;DHT22;29798;51.064;13.734;2022-09-09T11:53:33;26.30;99.90
44136;DHT22;29798;51.064;13.734;2022-09-09T11:56:01;26.00;99.90
44136;DHT22;29798;51.064;13.734;2022-09-09T11:58:40;25.70;99.90
44136;DHT22;29798;51.064;13.734;2022-09-09T12:01:41;25.50;99.90
44136;DHT22;29798;51.064;13.734;2022-09-09T12:07:03;25.30;99.90
44136;DHT22;29798;51.064;13.734;2022-09-09T12:17:20;31.10;99.90
44136;DHT22;29798;51.064;13.734;2022-09-09T12:19:48;30.50;99.90
44136;DHT22;29798;51.064;13.734;2022-09-09T12:33:35;27.10;99.90
44136;DHT22;29798;51.064;13.734;2022-09-09T12:36:12;26.70;99.90
44136;DHT22;29798;51.064;13.734;2022-09-09T12:38:41;26.30;99.90
44136;DHT22;29798;51.064;13.734;2022-09-09T12:41:21;26.80;99.90
44136;DHT22;29798;51.064;13.734;2022-09-09T12:43:48;28.80;99.90
44136;DHT22;29798;51.064;13.734;2022-09-09T12:46:23;31.10;99.90
44136;DHT22;29798;51.064;13.734;2022-09-09T12:48:57;33.20;99.90
44136;DHT22;29798;51.064;13.734;2022-09-09T12:51:26;34.10;97.60
44136;DHT22;29798;51.064;13.734;2022-09-09T12:53:54;35.00;95.70
44136;DHT22;29798;51.064;13.734;2022-09-09T12:56:25;35.70;94.00
44136;DHT22;29798;51.064;13.734;2022-09-09T12:58:53;35.70;92.50
44136;DHT22;29798;51.064;13.734;2022-09-09T13:01:25;36.00;91.80
44136;DHT22;29798;51.064;13.734;2022-09-09T13:03:58;36.80;90.70
44136;DHT22;29798;51.064;13.734;2022-09-09T13:06:32;36.90;87.50
44136;DHT22;29798;51.064;13.734;2022-09-09T13:08:59;36.80;86.20
44136;DHT22;29798;51.064;13.734;2022-09-09T13:11:26;35.60;86.20
44136;DHT22;29798;51.064;13.734;2022-09-09T13:14:03;34.00;89.70
44136;DHT22;29798;51.064;13.734;2022-09-09T13:16:34;32.30;91.40
44136;DHT22;29798;51.064;13.734;2022-09-09T13:19:08;31.10;93.40
44136;DHT22;29798;51.064;13.734;2022-09-09T13:21:36;30.30;94.70
44136;DHT22;29798;51.064;13.734;2022-09-09T13:24:05;29.90;95.80
44136;DHT22;29798;51.064;13.734;2022-09-09T13:26:33;30.30;95.90
44136;DHT22;29798;51.064;13.734;2022-09-09T13:29:18;31.40;94.60
44136;DHT22;29798;51.064;13.734;2022-09-09T13:31:44;31.20;94.20
44136;DHT22;29798;51.064;13.734;2022-09-09T13:34:22;30.30;94.80
44136;DHT22;29798;51.064;13.734;2022-09-09T13:37:14;29.90;95.70
44136;DHT22;29798;51.064;13.734;2022-09-09T13:39:50;29.40;96.70
44136;DHT22;29798;51.064;13.734;2022-09-09T13:42:25;28.70;99.00
44136;DHT22;29798;51.064;13.734;2022-09-09T13:44:52;28.20;98.50
44136;DHT22;29798;51.064;13.734;2022-09-09T13:47:19;27.90;99.60
44136;DHT22;29798;51.064;13.734;2022-09-09T13:49:46;27.80;99.90
44136;DHT22;29798;51.064;13.734;2022-09-09T13:52:13;27.80;99.90
44136;DHT22;29798;51.064;13.734;2022-09-09T13:54:40;27.60;98.80
44136;DHT22;29798;51.064;13.734;2022-09-09T13:57:13;27.20;99.10
44136;DHT22;29798;51.064;13.734;2022-09-09T13:59:44;26.80;99.90
44136;DHT22;29798;51.064;13.734;2022-09-09T14:02:14;26.40;99.90
44136;DHT22;29798;51.064;13.734;2022-09-09T14:04:41;26.30;99.90
44136;DHT22;29798;51.064;13.734;2022-09-09T14:07:14;26.20;99.90
44136;DHT22;29798;51.064;13.734;2022-09-09T14:09:41;26.20;99.90
44136;DHT22;29798;51.064;13.734;2022-09-09T14:12:10;26.20;99.90
44136;DHT22;29798;51.064;13.734;2022-09-09T14:14:37;26.20;99.90
44136;DHT22;29798;51.064;13.734;2022-09-09T14:17:03;27.50;99.90
44136;DHT22;29798;51.064;13.734;2022-09-09T14:19:29;26.40;99.90
44136;DHT22;29798;51.064;13.734;2022-09-09T14:21:56;26.50;99.90
44136;DHT22;29798;51.064;13.734;2022-09-09T14:24:23;26.70;99.90
44136;DHT22;29798;51.064;13.734;2022-09-09T14:26:49;26.70;99.90
44136;DHT22;29798;51.064;13.734;2022-09-09T14:29:14;26.80;99.90
44136;DHT22;29798;51.064;13.734;2022-09-09T14:31:40;27.10;99.90
44136;DHT22;29798;51.064;13.734;2022-09-09T14:34:06;27.20;99.90
44136;DHT22;29798;51.064;13.734;2022-09-09T14:36:32;27.40;99.90
44136;DHT22;29798;51.064;13.734;2022-09-09T14:38:58;27.70;99.90
44136;DHT22;29798;51.064;13.734;2022-09-09T14:41:24;27.80;99.90
44136;DHT22;29798;51.064;13.734;2022-09-09T14:43:50;27.80;99.90
44136;DHT22;29798;51.064;13.734;2022-09-09T14:46:18;27.80;99.90
44136;DHT22;29798;51.064;13.734;2022-09-09T14:48:45;27.80;99.90
44136;DHT22;29798;51.064;13.734;2022-09-09T14:51:14;28.40;99.90
44136;DHT22;29798;51.064;13.734;2022-09-09T14:53:51;29.70;99.60
44136;DHT22;29798;51.064;13.734;2022-09-09T14:56:19;30.90;97.30
44136;DHT22;29798;51.064;13.734;2022-09-09T14:58:48;30.60;96.50
44136;DHT22;29798;51.064;13.734;2022-09-09T15:01:16;29.70;97.40
44136;DHT22;29798;51.064;13.734;2022-09-09T15:03:48;29.20;95.90
44136;DHT22;29798;51.064;13.734;2022-09-09T15:06:15;30.10;95.70
44136;DHT22;29798;51.064;13.734;2022-09-09T15:08:41;31.80;94.50
44136;DHT22;29798;51.064;13.734;2022-09-09T15:11:08;33.00;93.30
44136;DHT22;29798;51.064;13.734;2022-09-09T15:13:35;32.50;93.40
44136;DHT22;29798;51.064;13.734;2022-09-09T15:16:09;31.50;95.30
44136;DHT22;29798;51.064;13.734;2022-09-09T15:18:38;30.50;93.60
44136;DHT22;29798;51.064;13.734;2022-09-09T15:21:10;29.50;95.00
44136;DHT22;29798;51.064;13.734;2022-09-09T15:23:40;29.30;97.20
44136;DHT22;29798;51.064;13.734;2022-09-09T15:26:06;29.20;96.30
44136;DHT22;29798;51.064;13.734;2022-09-09T15:28:33;28.80;96.50
44136;DHT22;29798;51.064;13.734;2022-09-09T15:31:20;28.60;97.50
44136;DHT22;29798;51.064;13.734;2022-09-09T15:33:50;28.70;97.50
44136;DHT22;29798;51.064;13.734;2022-09-09T15:36:21;29.10;97.70
44136;DHT22;29798;51.064;13.734;2022-09-09T15:38:48;29.40;97.30
44136;DHT22;29798;51.064;13.734;2022-09-09T15:41:15;29.90;96.40
44136;DHT22;29798;51.064;13.734;2022-09-09T15:43:45;30.50;95.50
44136;DHT22;29798;51.064;13.734;2022-09-09T15:46:31;30.40;95.30
44136;DHT22;29798;51.064;13.734;2022-09-09T15:49:02;30.10;95.70
44136;DHT22;29798;51.064;13.734;2022-09-09T15:51:30;29.10;98.10
44136;DHT22;29798;51.064;13.734;2022-09-09T15:53:59;27.90;99.90
44136;DHT22;29798;51.064;13.734;2022-09-09T15:56:25;26.70;99.90
44136;DHT22;29798;51.064;13.734;2022-09-09T15:58:52;25.90;99.90
44136;DHT22;29798;51.064;13.734;2022-09-09T16:01:19;25.30;99.90
44136;DHT22;29798;51.064;13.734;2022-09-09T16:03:45;25.10;99.90
44136;DHT22;29798;51.064;13.734;2022-09-09T16:06:12;24.90;99.90
44136;DHT22;29798;51.064;13.734;2022-09-09T16:08:40;24.80;99.90
44136;DHT22;29798;51.064;13.734;2022-09-09T16:11:07;24.80;99.90
44136;DHT22;29798;51.064;13.734;2022-09-09T16:13:35;24.70;99.90
44136;DHT22;29798;51.064;13.734;2022-09-09T16:16:02;22.90;99.90
44136;DHT22;29798;51.064;13.734;2022-09-09T16:18:33;24.10;99.90
44136;DHT22;29798;51.064;13.734;2022-09-09T16:21:01;24.90;99.90
44136;DHT22;29798;51.064;13.734;2022-09-09T16:23:27;23.60;99.90
44136;DHT22;29798;51.064;13.734;2022-09-09T16:25:55;23.40;99.90
44136;DHT22;29798;51.064;13.734;2022-09-09T16:28:21;23.40;99.90
44136;DHT22;29798;51.064;13.734;2022-09-09T16:30:47;24.00;99.90
44136;DHT22;29798;51.064;13.734;2022-09-09T16:33:13;24.20;99.90
44136;DHT22;29798;51.064;13.734;2022-09-09T16:35:42;24.10;99.90
44136;DHT22;29798;51.064;13.734;2022-09-09T16:38:08;24.20;99.90
44136;DHT22;29798;51.064;13.734;2022-09-09T16:40:34;24.80;99.90
44136;DHT22;29798;51.064;13.734;2022-09-09T16:43:02;26.40;99.90
44136;DHT22;29798;51.064;13.734;2022-09-09T16:45:28;27.90;99.90
44136;DHT22;29798;51.064;13.734;2022-09-09T16:47:56;28.40;99.90
44136;DHT22;29798;51.064;13.734;2022-09-09T16:50:21;28.60;99.90
44136;DHT22;29798;51.064;13.734;2022-09-09T16:52:47;28.90;99.90
44136;DHT22;29798;51.064;13.734;2022-09-09T16:55:13;29.30;99.80
44136;DHT22;29798;51.064;13.734;2022-09-09T16:57:39;29.30;99.60
44136;DHT22;29798;51.064;13.734;2022-09-09T17:00:06;29.10;99.20
44136;DHT22;29798;51.064;13.734;2022-09-09T17:02:33;28.90;99.30
44136;DHT22;29798;51.064;13.734;2022-09-09T17:04:58;28.80;99.30
44136;DHT22;29798;51.064;13.734;2022-09-09T17:07:24;28.30;99.60
44136;DHT22;29798;51.064;13.734;2022-09-09T17:09:50;27.80;99.90
44136;DHT22;29798;51.064;13.734;2022-09-09T17:12:16;27.50;99.90
44136;DHT22;29798;51.064;13.734;2022-09-09T17:14:42;27.40;99.90
44136;DHT22;29798;51.064;13.734;2022-09-09T17:17:08;26.70;99.90
44136;DHT22;29798;51.064;13.734;2022-09-09T17:19:34;25.70;99.90
44136;DHT22;29798;51.064;13.734;2022-09-09T17:21:59;24.90;99.90
44136;DHT22;29798;51.064;13.734;2022-09-09T17:24:26;24.20;99.90
44136;DHT22;29798;51.064;13.734;2022-09-09T17:26:54;23.50;99.90
44136;DHT22;29798;51.064;13.734;2022-09-09T17:29:20;22.80;99.90
44136;DHT22;29798;51.064;13.734;2022-09-09T17:31:47;22.30;99.90